Huvudsida
METAR-TAF:

METAR-TAF

Flygplatser :

María Montez International Airport

Santa Cruz de Barahona, Dominikanska republiken

latitud: 18-12N, longitud: 071-06W, höjd: 3 m

Aktuellt väderrapport

Denna rapport gjordes för 43 minuter sedan, klockan 17:00 UTC
Vind 8 kt från syd/sydost
Temperatur 33°C
Fuktighet 46%
Tryck 1017 hPa
Sikt 10 km eller mer
Få moln på en höjd av 2500 ft

METAR: MDBH 191700Z 16008KT 9999 FEW025 33/20 Q1017

Tid: 13:43 (17:43 UTC)

Väderprognos

Denna rapport gjordes för 1 timme och 43 minuter sedan, klockan 16:00 UTC
Prognos gäller från 19 kl. 18 UTC till 20 kl. 18 UTC
Vind 8 kt från sydost
Sikt 10 km eller mer
Få moln på en höjd av 2200 ft
Blir
från 19 kl. 00 UTC till 20 kl. 02 UTC
Vind kt från nord

TAF: MDBH 191600Z 1918/2018 13008KT 9999 FEW022 BECMG 1900/2002 00000KT

Aktuella väderrapporter och prognoser från 4000 flygplatser (METAR- och TAF-rapporter).

De tillgängliga stationerna syns som gula och röda prickar på kartan.

För musen över prickarna för att se namnen på stationerna.

Klicka sedan för att få väderrapporter och prognoser.

För att ändra kartan: Klicka på de gröna knapparna med ett svart kors på för att zooma in; den gröna knappen med ett streck på för att zooma ut; eller på de gröna pilarna för angränsande kartor.


METAR-TAF: